LIPH/TSF METAR and TAF weather

Enter ICAO airport designator
Station Type Date Time Source
LIPH METAR 2019/05/25 08:50 UTC NOAA

LIPH 250850Z VRB03KT 9999 FEW020 22/15 Q1014


Station Type Date Time Source
LIPH Decoded METAR 2019/05/25 08:50 UTC NOAA

Treviso / S. Angelo, Italy (LIPH) 45-39N 012-11E 23M
May 25, 2019 - 04:50 AM EDT / 2019.05.25 0850 UTC
Wind: Variable at 3 MPH (3 KT):0
Visibility: greater than 7 mile(s):0
Sky conditions: mostly clear
Temperature: 71 F (22 C)
Dew Point: 59 F (15 C)
Relative Humidity: 64%
Pressure (altimeter): 29.94 in. Hg (1014 hPa)
ob: LIPH 250850Z VRB03KT 9999 FEW020 22/15 Q1014
cycle: 9

Station Type Date Time Source
LIPH TAF 2019/05/25 06:21 UTC NOAA

TAF LIPH 250500Z 2506/2606 VRB05KT 9999 SCT040
TEMPO 2512/2518 TSRA

Example: see airport list